Time;durP1;ratioP1;P1;durP2;ratioP2;P2;SDS_P1;SDS_P2;PMS_P1;PMS_P2;Temp;Humidity;BMP_temperature;BMP_pressure;BME280_temperature;BME280_humidity;BME280_pressure;Samples;Min_cycle;Max_cycle;Signal;HPM_P1;HPM_P2
2022/05/13 00:01:28;;;;;;;6.05;3.60;;;;;;;;;;5020800;28;20045;-67
2022/05/13 00:03:57;;;;;;;7.78;4.13;;;;;;;;;;5021404;28;20104;-68
2022/05/13 00:06:25;;;;;;;6.07;4.07;;;;;;;;;;5027042;28;20041;-67
2022/05/13 00:08:54;;;;;;;7.30;4.20;;;;;;;;;;5018173;28;20077;-67
2022/05/13 00:11:22;;;;;;;8.55;4.55;;;;;;;;;;5013970;28;20137;-67
2022/05/13 00:13:51;;;;;;;5.80;4.25;;;;;;;;;;5020711;28;20050;-67
2022/05/13 00:16:20;;;;;;;8.80;4.78;;;;;;;;;;5018147;28;20081;-67
2022/05/13 00:18:49;;;;;;;7.78;4.80;;;;;;;;;;5021136;28;20073;-67
2022/05/13 00:21:17;;;;;;;6.90;4.07;;;;;;;;;;5028982;28;20137;-67
2022/05/13 00:23:45;;;;;;;8.70;4.38;;;;;;;;;;5026313;28;20140;-68
2022/05/13 00:26:14;;;;;;;7.85;4.47;;;;;;;;;;5023447;28;20128;-68
2022/05/13 00:28:42;;;;;;;6.30;4.05;;;;;;;;;;5024308;28;20081;-68
2022/05/13 00:31:12;;;;;;;10.80;5.15;;;;;;;;;;5019743;28;20152;-68
2022/05/13 00:33:41;;;;;;;10.40;4.47;;;;;;;;;;5024358;28;21528;-68
2022/05/13 00:36:10;;;;;;;6.88;4.00;;;;;;;;;;5018303;28;20052;-67
2022/05/13 00:38:38;;;;;;;12.60;4.72;;;;;;;;;;5019591;28;20054;-67
2022/05/13 00:41:09;;;;;;;7.10;4.43;;;;;;;;;;5027906;28;20120;-68
2022/05/13 00:43:39;;;;;;;8.20;4.35;;;;;;;;;;5026367;28;20600;-68
2022/05/13 00:46:08;;;;;;;8.77;4.20;;;;;;;;;;5027418;28;20569;-67
2022/05/13 00:48:36;;;;;;;7.63;4.70;;;;;;;;;;5014827;28;20061;-67
2022/05/13 00:51:09;;;;;;;9.07;5.00;;;;;;;;;;5025478;28;20076;-67
2022/05/13 00:53:38;;;;;;;7.35;4.40;;;;;;;;;;5023700;28;20117;-67
2022/05/13 00:56:06;;;;;;;6.95;4.18;;;;;;;;;;5026661;28;20073;-68
2022/05/13 00:58:35;;;;;;;8.57;4.70;;;;;;;;;;5018361;28;20165;-67
2022/05/13 01:01:07;;;;;;;10.77;4.45;;;;;;;;;;5021407;28;20485;-67
2022/05/13 01:03:36;;;;;;;7.53;4.63;;;;;;;;;;5015927;28;20084;-67
2022/05/13 01:06:13;;;;;;;8.40;4.50;;;;;;;;;;5022760;28;20054;-67
2022/05/13 01:08:41;;;;;;;4.80;3.92;;;;;;;;;;5029050;28;20046;-67
2022/05/13 01:11:12;;;;;;;7.50;4.15;;;;;;;;;;5022679;28;20045;-67
2022/05/13 01:13:45;;;;;;;7.00;4.63;;;;;;;;;;5025042;28;20045;-68
2022/05/13 01:16:13;;;;;;;7.00;4.22;;;;;;;;;;5022749;28;20128;-68
2022/05/13 01:18:42;;;;;;;6.53;4.20;;;;;;;;;;5020047;28;20136;-67
2022/05/13 01:21:15;;;;;;;7.32;4.32;;;;;;;;;;5026029;28;20116;-67
2022/05/13 01:23:47;;;;;;;7.05;4.07;;;;;;;;;;5010437;28;20050;-67
2022/05/13 01:26:19;;;;;;;6.15;3.97;;;;;;;;;;5022438;28;20066;-67
2022/05/13 01:28:50;;;;;;;5.95;4.03;;;;;;;;;;5008799;28;20081;-68
2022/05/13 01:31:23;;;;;;;5.53;3.58;;;;;;;;;;5023141;28;20413;-67
2022/05/13 01:33:53;;;;;;;8.70;4.50;;;;;;;;;;5025724;28;20081;-68
2022/05/13 01:36:21;;;;;;;9.25;3.83;;;;;;;;;;5028539;28;20116;-67
2022/05/13 01:38:51;;;;;;;6.88;4.32;;;;;;;;;;5020463;28;20037;-67
2022/05/13 01:41:20;;;;;;;7.78;4.40;;;;;;;;;;5023301;28;20058;-67
2022/05/13 01:43:48;;;;;;;10.25;4.82;;;;;;;;;;5030792;28;20488;-67
2022/05/13 01:46:17;;;;;;;8.85;4.60;;;;;;;;;;5028533;28;20141;-67
2022/05/13 01:48:46;;;;;;;7.78;4.88;;;;;;;;;;5028617;28;20053;-67
2022/05/13 01:51:15;;;;;;;5.88;4.40;;;;;;;;;;5022816;28;20089;-67
2022/05/13 01:53:44;;;;;;;12.70;4.70;;;;;;;;;;5024867;28;20049;-68
2022/05/13 01:56:14;;;;;;;6.63;4.30;;;;;;;;;;5033496;28;20053;-68
2022/05/13 01:58:42;;;;;;;7.25;4.70;;;;;;;;;;5026987;28;20050;-68
2022/05/13 02:01:10;;;;;;;8.48;4.55;;;;;;;;;;5028599;28;20479;-67
2022/05/13 02:03:45;;;;;;;8.20;4.47;;;;;;;;;;5025088;28;20046;-67
2022/05/13 02:06:15;;;;;;;7.57;4.05;;;;;;;;;;5023659;28;20064;-67
2022/05/13 02:08:43;;;;;;;7.75;4.55;;;;;;;;;;5030940;28;20053;-68
2022/05/13 02:11:12;;;;;;;9.60;5.10;;;;;;;;;;5031243;28;20148;-67
2022/05/13 02:13:42;;;;;;;6.10;4.43;;;;;;;;;;5030294;28;20116;-67
2022/05/13 02:16:12;;;;;;;12.43;4.35;;;;;;;;;;5029454;28;20128;-67
2022/05/13 02:18:41;;;;;;;7.72;4.78;;;;;;;;;;5018476;28;20137;-67
2022/05/13 02:21:09;;;;;;;9.27;4.45;;;;;;;;;;5030008;28;20160;-67
2022/05/13 02:23:38;;;;;;;8.20;4.93;;;;;;;;;;5023065;28;20057;-68
2022/05/13 02:26:07;;;;;;;5.47;4.38;;;;;;;;;;5026533;28;20049;-67
2022/05/13 02:28:35;;;;;;;8.85;4.72;;;;;;;;;;5021081;28;20073;-68
2022/05/13 02:31:08;;;;;;;7.30;4.50;;;;;;;;;;5026343;28;20049;-68
2022/05/13 02:33:36;;;;;;;5.88;4.50;;;;;;;;;;5029491;28;20053;-67
2022/05/13 02:36:08;;;;;;;9.57;5.78;;;;;;;;;;5031108;28;20133;-67
2022/05/13 02:38:37;;;;;;;6.22;4.50;;;;;;;;;;5025935;28;20165;-67
2022/05/13 02:41:15;;;;;;;11.85;5.85;;;;;;;;;;5029126;28;20132;-67
2022/05/13 02:43:45;;;;;;;7.57;4.68;;;;;;;;;;5028495;28;20041;-67
2022/05/13 02:46:15;;;;;;;10.48;4.75;;;;;;;;;;5028873;28;20136;-69
2022/05/13 02:48:44;;;;;;;7.55;5.13;;;;;;;;;;5027848;28;20533;-67
2022/05/13 02:51:12;;;;;;;14.55;5.10;;;;;;;;;;5031219;28;20136;-66
2022/05/13 02:53:41;;;;;;;10.35;4.82;;;;;;;;;;5028287;28;20037;-69
2022/05/13 02:56:09;;;;;;;10.73;4.82;;;;;;;;;;5031784;28;20128;-66
2022/05/13 02:58:38;;;;;;;7.88;4.35;;;;;;;;;;5027139;28;20056;-66
2022/05/13 03:01:07;;;;;;;8.32;4.75;;;;;;;;;;5029658;28;20103;-67
2022/05/13 03:03:38;;;;;;;5.82;4.25;;;;;;;;;;5021326;28;20062;-67
2022/05/13 03:06:06;;;;;;;7.43;4.60;;;;;;;;;;5029426;28;20124;-67
2022/05/13 03:08:35;;;;;;;10.35;5.38;;;;;;;;;;5025296;28;20076;-67
2022/05/13 03:11:07;;;;;;;6.78;4.05;;;;;;;;;;5015114;28;20081;-67
2022/05/13 03:13:35;;;;;;;7.07;3.92;;;;;;;;;;5020582;28;20397;-67
2022/05/13 03:16:06;;;;;;;5.95;4.18;;;;;;;;;;5024757;28;20087;-67
2022/05/13 03:18:38;;;;;;;5.65;3.58;;;;;;;;;;5025772;28;20127;-67
2022/05/13 03:21:09;;;;;;;7.10;4.15;;;;;;;;;;5024062;28;20092;-68
2022/05/13 03:23:37;;;;;;;6.57;3.88;;;;;;;;;;5024567;28;20080;-67
2022/05/13 03:26:08;;;;;;;7.20;4.00;;;;;;;;;;5028244;28;20079;-67
2022/05/13 03:28:37;;;;;;;6.30;4.18;;;;;;;;;;5022518;28;20234;-68
2022/05/13 03:31:08;;;;;;;6.85;4.07;;;;;;;;;;5020050;28;20156;-67
2022/05/13 03:33:36;;;;;;;5.82;3.85;;;;;;;;;;5019306;28;20509;-67
2022/05/13 03:36:10;;;;;;;6.13;3.92;;;;;;;;;;5030873;28;20050;-67
2022/05/13 03:38:40;;;;;;;6.25;4.05;;;;;;;;;;5027548;28;20143;-67
2022/05/13 03:41:08;;;;;;;7.38;4.50;;;;;;;;;;5026826;28;20037;-67
2022/05/13 03:43:37;;;;;;;8.70;3.88;;;;;;;;;;5024119;28;20194;-67
2022/05/13 03:46:08;;;;;;;9.00;4.28;;;;;;;;;;5029225;28;20128;-68
2022/05/13 03:48:36;;;;;;;7.75;4.47;;;;;;;;;;5021358;28;20053;-68
2022/05/13 03:51:09;;;;;;;9.13;3.95;;;;;;;;;;5026794;28;20092;-67
2022/05/13 03:53:39;;;;;;;7.82;4.38;;;;;;;;;;5027738;28;20050;-68
2022/05/13 03:56:08;;;;;;;8.90;4.05;;;;;;;;;;5022343;28;20052;-68
2022/05/13 03:58:36;;;;;;;7.88;4.40;;;;;;;;;;5023977;28;20569;-68
2022/05/13 04:01:07;;;;;;;9.70;4.13;;;;;;;;;;5021451;28;20552;-68
2022/05/13 04:03:36;;;;;;;9.43;4.28;;;;;;;;;;5014341;28;20053;-67
2022/05/13 04:08:57;;;;;;;6.70;4.15;;;;;;;;;;5017761;28;20046;-67
2022/05/13 04:11:26;;;;;;;8.73;3.63;;;;;;;;;;5015031;28;20103;-68
2022/05/13 04:16:41;;;;;;;8.52;3.80;;;;;;;;;;5019143;28;20117;-67
2022/05/13 04:19:09;;;;;;;5.55;3.55;;;;;;;;;;5016341;28;20566;-67
2022/05/13 04:21:39;;;;;;;7.13;3.92;;;;;;;;;;5020159;28;20136;-67
2022/05/13 04:24:09;;;;;;;3.90;2.90;;;;;;;;;;5020832;28;20498;-67
2022/05/13 04:26:38;;;;;;;6.53;3.58;;;;;;;;;;5015605;28;20099;-69
2022/05/13 04:29:06;;;;;;;8.95;3.13;;;;;;;;;;5028116;28;20085;-67
2022/05/13 04:31:35;;;;;;;5.88;3.25;;;;;;;;;;5026515;28;20107;-67
2022/05/13 04:34:04;;;;;;;8.02;3.60;;;;;;;;;;5026999;28;20069;-68
2022/05/13 04:36:32;;;;;;;5.38;3.15;;;;;;;;;;5024096;28;20096;-67
2022/05/13 04:39:02;;;;;;;4.75;2.90;;;;;;;;;;5036037;28;20095;-68
2022/05/13 04:44:17;;;;;;;4.47;2.70;;;;;;;;;;5022248;28;20045;-67
2022/05/13 04:46:46;;;;;;;4.63;2.83;;;;;;;;;;5022195;28;20494;-67
2022/05/13 04:49:14;;;;;;;3.33;2.63;;;;;;;;;;5019022;28;20076;-67
2022/05/13 04:51:43;;;;;;;5.13;2.80;;;;;;;;;;5026061;28;20140;-67
2022/05/13 04:54:12;;;;;;;4.32;2.78;;;;;;;;;;5026395;28;20547;-66
2022/05/13 04:56:41;;;;;;;3.83;2.55;;;;;;;;;;5023169;28;20069;-68
2022/05/13 04:59:09;;;;;;;4.22;2.95;;;;;;;;;;5025811;28;20493;-67
2022/05/13 05:01:38;;;;;;;4.70;2.53;;;;;;;;;;5022265;28;20141;-67
2022/05/13 05:04:07;;;;;;;3.45;2.45;;;;;;;;;;5015667;28;20453;-66
2022/05/13 05:06:36;;;;;;;4.78;3.30;;;;;;;;;;5015998;28;20069;-69
2022/05/13 05:09:04;;;;;;;5.82;3.25;;;;;;;;;;5020590;28;20052;-67
2022/05/13 05:11:34;;;;;;;6.68;3.55;;;;;;;;;;5022433;28;20069;-66
2022/05/13 05:14:02;;;;;;;8.48;3.33;;;;;;;;;;5024480;28;20489;-67
2022/05/13 05:16:30;;;;;;;5.60;2.85;;;;;;;;;;5024140;28;20140;-66
2022/05/13 05:18:59;;;;;;;4.40;2.80;;;;;;;;;;5027648;28;20458;-67
2022/05/13 05:21:29;;;;;;;3.63;3.00;;;;;;;;;;5025985;28;20095;-68
2022/05/13 05:23:58;;;;;;;3.85;2.83;;;;;;;;;;5028819;28;20087;-66
2022/05/13 05:26:26;;;;;;;3.70;2.70;;;;;;;;;;5021955;28;20045;-68
2022/05/13 05:28:56;;;;;;;5.85;3.08;;;;;;;;;;5018230;28;20054;-67
2022/05/13 05:31:24;;;;;;;4.70;2.88;;;;;;;;;;5023464;28;20118;-67
2022/05/13 05:33:53;;;;;;;4.43;3.00;;;;;;;;;;5026397;28;20103;-67
2022/05/13 05:36:21;;;;;;;5.82;3.00;;;;;;;;;;5028582;28;20119;-67
2022/05/13 05:38:49;;;;;;;6.13;3.15;;;;;;;;;;5024930;28;20073;-66
2022/05/13 05:41:18;;;;;;;5.07;3.15;;;;;;;;;;5029797;28;20129;-68
2022/05/13 05:43:46;;;;;;;7.72;3.22;;;;;;;;;;5029926;28;20041;-67
2022/05/13 05:46:16;;;;;;;5.63;3.15;;;;;;;;;;5027403;28;20132;-68
2022/05/13 05:48:44;;;;;;;5.50;2.70;;;;;;;;;;5021769;28;20047;-68
2022/05/13 05:51:13;;;;;;;11.35;3.45;;;;;;;;;;5029540;28;20084;-67
2022/05/13 05:59:13;;;;;;;7.38;3.78;;;;;;;;;;5020976;28;20543;-67
2022/05/13 06:01:43;;;;;;;6.90;3.83;;;;;;;;;;5027281;28;20682;-67
2022/05/13 06:04:19;;;;;;;5.53;3.33;;;;;;;;;;5028302;28;20129;-69
2022/05/13 06:06:47;;;;;;;6.82;3.47;;;;;;;;;;5028076;28;20061;-67
2022/05/13 06:09:16;;;;;;;7.55;4.15;;;;;;;;;;5020086;28;20099;-66
2022/05/13 06:11:44;;;;;;;8.05;3.50;;;;;;;;;;5026075;28;20084;-68
2022/05/13 06:14:13;;;;;;;9.57;3.40;;;;;;;;;;5022917;28;20421;-68
2022/05/13 06:16:43;;;;;;;5.00;3.60;;;;;;;;;;5020065;28;20057;-67
2022/05/13 06:19:11;;;;;;;7.07;4.05;;;;;;;;;;5025711;28;20041;-66
2022/05/13 06:21:40;;;;;;;6.20;4.07;;;;;;;;;;5024577;28;20128;-67
2022/05/13 06:24:08;;;;;;;9.20;3.83;;;;;;;;;;5027503;28;20528;-67
2022/05/13 06:26:37;;;;;;;7.88;4.13;;;;;;;;;;5032438;28;20155;-66
2022/05/13 06:29:06;;;;;;;5.57;3.33;;;;;;;;;;5029674;28;20132;-67
2022/05/13 06:31:35;;;;;;;7.25;3.70;;;;;;;;;;5026877;28;20572;-66
2022/05/13 06:34:06;;;;;;;8.57;4.13;;;;;;;;;;5041978;28;20042;-66
2022/05/13 06:36:34;;;;;;;7.65;4.13;;;;;;;;;;5024945;28;20046;-67
2022/05/13 06:39:03;;;;;;;11.15;4.20;;;;;;;;;;5023089;28;20092;-67
2022/05/13 06:41:31;;;;;;;8.77;3.80;;;;;;;;;;5026454;28;20046;-68
2022/05/13 06:44:02;;;;;;;6.47;3.92;;;;;;;;;;5025881;28;20415;-67
2022/05/13 06:46:30;;;;;;;5.15;3.70;;;;;;;;;;5026717;28;20037;-67
2022/05/13 06:48:59;;;;;;;5.70;4.15;;;;;;;;;;5024238;28;20046;-67
2022/05/13 06:51:29;;;;;;;7.70;3.88;;;;;;;;;;5026034;28;20053;-67
2022/05/13 06:54:03;;;;;;;5.90;4.15;;;;;;;;;;5020448;28;20060;-67
2022/05/13 06:56:32;;;;;;;7.22;4.10;;;;;;;;;;5024166;28;20141;-67
2022/05/13 06:59:01;;;;;;;6.25;3.95;;;;;;;;;;5030711;28;20140;-67
2022/05/13 07:01:30;;;;;;;8.60;3.90;;;;;;;;;;5032060;28;20145;-68
2022/05/13 07:03:58;;;;;;;8.82;4.70;;;;;;;;;;5025509;28;20057;-67
2022/05/13 07:06:28;;;;;;;7.72;4.15;;;;;;;;;;5025173;28;20475;-67
2022/05/13 07:08:57;;;;;;;6.35;3.92;;;;;;;;;;5025730;28;20053;-67
2022/05/13 07:11:26;;;;;;;5.95;3.58;;;;;;;;;;5025706;28;20049;-67
2022/05/13 07:13:55;;;;;;;9.43;3.97;;;;;;;;;;5018994;28;20563;-67
2022/05/13 07:16:23;;;;;;;7.68;4.15;;;;;;;;;;5025540;28;20037;-67
2022/05/13 07:18:52;;;;;;;8.48;4.70;;;;;;;;;;5020298;28;20188;-67
2022/05/13 07:21:21;;;;;;;7.07;4.20;;;;;;;;;;5023114;28;20521;-67
2022/05/13 07:23:51;;;;;;;8.63;4.28;;;;;;;;;;5024754;28;20108;-68
2022/05/13 07:26:19;;;;;;;6.18;4.00;;;;;;;;;;5025470;28;20054;-68
2022/05/13 07:28:48;;;;;;;6.18;3.60;;;;;;;;;;5028025;28;20057;-68
2022/05/13 07:31:16;;;;;;;7.18;3.60;;;;;;;;;;5022834;28;21645;-68
2022/05/13 07:33:45;;;;;;;5.28;3.80;;;;;;;;;;5025209;28;20077;-67
2022/05/13 07:36:14;;;;;;;7.68;4.00;;;;;;;;;;5025969;28;20046;-67
2022/05/13 07:41:16;;;;;;;6.03;3.63;;;;;;;;;;5023440;28;20060;-67
2022/05/13 07:41:31;;;;;;;9.43;3.83;;;;;;;;;;5024584;28;20128;-67
2022/05/13 07:44:00;;;;;;;6.85;3.40;;;;;;;;;;5027341;28;20053;-68
2022/05/13 07:46:28;;;;;;;7.03;3.63;;;;;;;;;;5024568;28;20115;-67
2022/05/13 07:48:57;;;;;;;5.35;3.50;;;;;;;;;;5022870;28;20141;-68
2022/05/13 07:51:26;;;;;;;5.25;3.80;;;;;;;;;;5027241;28;20045;-68
2022/05/13 07:53:55;;;;;;;4.43;3.10;;;;;;;;;;5027370;28;20049;-68
2022/05/13 07:56:23;;;;;;;5.50;3.20;;;;;;;;;;5023712;28;20551;-67
2022/05/13 07:58:53;;;;;;;5.18;3.15;;;;;;;;;;5027785;28;20049;-68
2022/05/13 08:01:22;;;;;;;5.38;3.30;;;;;;;;;;5022483;28;20049;-67
2022/05/13 08:03:51;;;;;;;4.15;3.17;;;;;;;;;;5026678;28;20536;-67
2022/05/13 08:06:19;;;;;;;4.50;3.13;;;;;;;;;;5019153;28;20050;-67
2022/05/13 08:08:55;;;;;;;5.13;3.15;;;;;;;;;;5013430;28;20053;-67
2022/05/13 08:11:25;;;;;;;5.18;3.22;;;;;;;;;;5027487;28;20477;-67
2022/05/13 08:13:56;;;;;;;6.43;3.70;;;;;;;;;;5021339;28;20045;-67
2022/05/13 08:16:26;;;;;;;6.43;2.90;;;;;;;;;;5018377;28;20042;-67
2022/05/13 08:18:55;;;;;;;5.32;3.20;;;;;;;;;;5026426;28;20085;-66
2022/05/13 08:21:23;;;;;;;6.70;3.30;;;;;;;;;;5026391;28;20060;-66
2022/05/13 08:23:52;;;;;;;5.28;3.33;;;;;;;;;;5027041;28;20037;-66
2022/05/13 08:26:20;;;;;;;5.57;3.45;;;;;;;;;;5017881;28;20517;-67
2022/05/13 08:28:49;;;;;;;5.88;2.92;;;;;;;;;;5023714;28;20057;-67
2022/05/13 08:31:19;;;;;;;7.05;3.30;;;;;;;;;;5024191;28;20091;-67
2022/05/13 08:33:48;;;;;;;3.78;2.92;;;;;;;;;;5023256;28;20457;-67
2022/05/13 08:36:17;;;;;;;4.38;2.95;;;;;;;;;;5018055;28;20497;-67
2022/05/13 08:38:47;;;;;;;4.45;3.00;;;;;;;;;;5021560;28;20065;-68
2022/05/13 08:41:24;;;;;;;7.97;3.70;;;;;;;;;;5023587;28;20095;-67
2022/05/13 08:43:54;;;;;;;5.00;3.55;;;;;;;;;;5023789;28;20070;-68
2022/05/13 08:46:30;;;;;;;5.78;3.25;;;;;;;;;;5026342;28;20072;-67
2022/05/13 08:49:01;;;;;;;5.95;3.63;;;;;;;;;;5032000;28;20485;-67
2022/05/13 08:51:37;;;;;;;5.05;3.30;;;;;;;;;;5028699;28;20144;-67
2022/05/13 08:54:11;;;;;;;5.00;3.47;;;;;;;;;;5031057;28;20049;-66
2022/05/13 08:56:40;;;;;;;4.70;3.13;;;;;;;;;;5027818;28;20056;-67
2022/05/13 08:59:13;;;;;;;5.13;3.22;;;;;;;;;;5031002;28;20077;-66
2022/05/13 09:01:46;;;;;;;5.05;3.35;;;;;;;;;;5028627;28;20668;-67
2022/05/13 09:04:19;;;;;;;5.75;3.78;;;;;;;;;;5020584;28;20053;-68
2022/05/13 09:06:50;;;;;;;7.30;3.53;;;;;;;;;;5030580;28;20099;-68
2022/05/13 09:09:19;;;;;;;7.65;3.80;;;;;;;;;;5030001;28;20073;-68
2022/05/13 09:11:52;;;;;;;5.53;3.50;;;;;;;;;;5026658;28;20635;-67
2022/05/13 09:14:26;;;;;;;8.63;3.88;;;;;;;;;;5030883;28;20137;-67
2022/05/13 09:17:02;;;;;;;7.83;3.80;;;;;;;;;;5029401;28;20052;-66
2022/05/13 09:19:34;;;;;;;8.77;3.92;;;;;;;;;;5032603;28;20486;-67
2022/05/13 09:22:04;;;;;;;11.65;4.43;;;;;;;;;;5028704;28;20052;-67
2022/05/13 09:24:32;;;;;;;8.77;4.07;;;;;;;;;;5028630;28;20103;-67
2022/05/13 09:27:01;;;;;;;10.50;4.82;;;;;;;;;;5027706;28;20038;-68
2022/05/13 09:29:38;;;;;;;7.82;3.85;;;;;;;;;;5025334;28;20088;-67
2022/05/13 09:32:14;;;;;;;11.63;3.90;;;;;;;;;;5029712;28;20049;-68
2022/05/13 09:34:49;;;;;;;10.07;3.97;;;;;;;;;;5027832;28;20077;-67
2022/05/13 09:37:17;;;;;;;;;;;;;;;;;;5022669;28;20049;-68
2022/05/13 09:39:47;;;;;;;7.05;3.75;;;;;;;;;;5023864;28;19929;-68
2022/05/13 09:42:19;;;;;;;7.15;3.70;;;;;;;;;;5030108;28;20137;-68
2022/05/13 09:44:48;;;;;;;10.38;3.85;;;;;;;;;;5031856;28;20168;-68
2022/05/13 09:47:24;;;;;;;8.63;4.22;;;;;;;;;;5022045;28;20084;-69
2022/05/13 09:50:17;;;;;;;8.35;4.30;;;;;;;;;;5030988;28;20041;-68
2022/05/13 09:52:47;;;;;;;8.85;4.38;;;;;;;;;;5028717;28;20045;-69
2022/05/13 09:55:17;;;;;;;11.43;4.90;;;;;;;;;;5026431;28;20049;-69
2022/05/13 09:57:46;;;;;;;10.13;4.63;;;;;;;;;;5028783;28;20049;-68
2022/05/13 10:00:17;;;;;;;7.75;4.32;;;;;;;;;;5031247;28;20103;-68
2022/05/13 10:02:48;;;;;;;8.88;4.75;;;;;;;;;;5023633;28;20053;-69
2022/05/13 10:05:19;;;;;;;10.90;4.07;;;;;;;;;;5026672;28;20049;-68
2022/05/13 10:07:56;;;;;;;8.60;3.65;;;;;;;;;;5025810;28;20101;-67
2022/05/13 10:16:01;;;;;;;7.38;3.78;;;;;;;;;;5028488;28;20045;-67
2022/05/13 10:18:43;;;;;;;10.32;3.72;;;;;;;;;;5030460;28;20136;-68
2022/05/13 10:21:15;;;;;;;5.65;3.08;;;;;;;;;;5027840;28;20059;-68
2022/05/13 10:23:45;;;;;;;6.65;3.10;;;;;;;;;;5027305;28;20053;-68
2022/05/13 10:26:17;;;;;;;4.05;2.95;;;;;;;;;;5024756;28;20068;-68
2022/05/13 10:28:49;;;;;;;4.88;2.80;;;;;;;;;;5021649;28;20045;-68
2022/05/13 10:31:20;;;;;;;7.18;3.20;;;;;;;;;;5020542;28;20058;-68
2022/05/13 10:33:56;;;;;;;5.18;2.22;;;;;;;;;;5025283;28;20133;-67
2022/05/13 10:36:28;;;;;;;7.03;2.80;;;;;;;;;;5022897;28;20064;-68
2022/05/13 10:39:01;;;;;;;5.53;2.55;;;;;;;;;;5024576;28;20060;-69
2022/05/13 10:41:38;;;;;;;3.95;2.35;;;;;;;;;;5020694;28;20082;-68
2022/05/13 10:44:09;;;;;;;5.13;3.10;;;;;;;;;;5028250;28;20088;-70
2022/05/13 10:46:44;;;;;;;4.45;2.83;;;;;;;;;;5026339;28;20199;-68
2022/05/13 10:49:34;;;;;;;;;;;;;;;;;;5031452;28;20080;-68
2022/05/13 10:52:07;;;;;;;6.57;2.72;;;;;;;;;;5026488;28;19921;-68
2022/05/13 10:54:40;;;;;;;4.47;2.83;;;;;;;;;;5023952;28;20045;-68
2022/05/13 10:57:14;;;;;;;4.78;2.40;;;;;;;;;;5030593;28;20092;-68
2022/05/13 10:59:54;;;;;;;5.83;2.97;;;;;;;;;;5007951;28;20064;-68
2022/05/13 11:02:41;;;;;;;4.03;2.45;;;;;;;;;;5028543;28;20099;-68
2022/05/13 11:05:12;;;;;;;5.25;2.63;;;;;;;;;;5028115;28;20414;-69
2022/05/13 11:07:48;;;;;;;3.92;2.60;;;;;;;;;;5025351;28;20105;-68
2022/05/13 11:10:25;;;;;;;3.90;2.50;;;;;;;;;;5025604;28;20136;-68
2022/05/13 11:12:56;;;;;;;5.22;2.75;;;;;;;;;;5025814;28;20531;-67
2022/05/13 11:15:33;;;;;;;6.72;2.75;;;;;;;;;;5029979;28;20060;-69
2022/05/13 11:18:08;;;;;;;5.60;3.08;;;;;;;;;;5022265;28;20140;-67
2022/05/13 11:20:41;;;;;;;6.20;2.95;;;;;;;;;;5029170;28;20478;-67
2022/05/13 11:23:16;;;;;;;4.13;2.65;;;;;;;;;;5022515;28;20569;-67
2022/05/13 11:25:54;;;;;;;4.35;2.70;;;;;;;;;;5029070;28;20041;-67
2022/05/13 11:28:32;;;;;;;5.05;2.80;;;;;;;;;;5018556;28;20052;-71
2022/05/13 11:31:10;;;;;;;4.47;2.70;;;;;;;;;;5028135;28;20164;-71
2022/05/13 11:33:42;;;;;;;5.18;2.58;;;;;;;;;;5021552;28;20140;-68
2022/05/13 11:36:18;;;;;;;4.63;2.70;;;;;;;;;;5023600;28;20037;-67
2022/05/13 11:38:54;;;;;;;4.45;2.55;;;;;;;;;;5020007;28;20053;-68
2022/05/13 11:41:23;;;;;;;4.28;2.30;;;;;;;;;;5031251;28;20069;-68
2022/05/13 11:44:12;;;;;;;4.60;2.30;;;;;;;;;;5023272;28;20489;-68
2022/05/13 11:46:48;;;;;;;7.25;2.28;;;;;;;;;;5018855;28;20480;-67
2022/05/13 11:49:21;;;;;;;4.40;2.85;;;;;;;;;;5015782;28;20049;-67
2022/05/13 11:51:49;;;;;;;6.22;2.83;;;;;;;;;;5025095;28;20515;-67
2022/05/13 11:54:28;;;;;;;5.30;2.97;;;;;;;;;;5018578;28;20648;-66
2022/05/13 11:57:21;;;;;;;5.43;3.42;;;;;;;;;;5021245;28;20041;-67
2022/05/13 11:59:50;;;;;;;8.45;3.55;;;;;;;;;;5003641;28;20053;-67
2022/05/13 12:02:37;;;;;;;5.55;2.95;;;;;;;;;;5019430;28;20049;-68
2022/05/13 12:05:08;;;;;;;6.63;3.33;;;;;;;;;;5009187;28;20154;-68
2022/05/13 12:07:40;;;;;;;7.13;3.58;;;;;;;;;;5024692;28;20086;-67
2022/05/13 12:10:11;;;;;;;8.35;4.10;;;;;;;;;;5024010;28;20056;-66
2022/05/13 12:12:49;;;;;;;5.32;3.28;;;;;;;;;;5023865;28;20057;-68
2022/05/13 12:15:27;;;;;;;6.78;4.30;;;;;;;;;;5023333;28;20080;-68
2022/05/13 12:18:00;;;;;;;7.45;4.18;;;;;;;;;;5021285;28;20060;-68
2022/05/13 12:20:33;;;;;;;7.18;4.43;;;;;;;;;;5018293;28;20057;-66
2022/05/13 12:23:05;;;;;;;5.78;3.90;;;;;;;;;;5025802;28;20045;-67
2022/05/13 12:25:49;;;;;;;6.63;3.38;;;;;;;;;;5017661;28;20045;-68
2022/05/13 12:28:25;;;;;;;6.88;3.75;;;;;;;;;;5025817;28;20065;-67
2022/05/13 12:30:54;;;;;;;6.53;3.75;;;;;;;;;;5018161;28;20137;-66
2022/05/13 12:33:38;;;;;;;7.47;4.40;;;;;;;;;;5029524;28;20544;-68
2022/05/13 12:39:07;;;;;;;9.02;4.72;;;;;;;;;;5022591;28;20038;-66
2022/05/13 12:41:56;;;;;;;10.57;4.10;;;;;;;;;;5024163;28;20619;-67
2022/05/13 12:44:27;;;;;;;7.72;4.32;;;;;;;;;;5017919;28;20121;-66
2022/05/13 12:47:11;;;;;;;7.65;4.10;;;;;;;;;;5017636;28;20068;-67
2022/05/13 12:49:53;;;;;;;7.47;4.25;;;;;;;;;;5001225;28;20191;-67
2022/05/13 12:52:23;;;;;;;8.20;4.28;;;;;;;;;;5019633;28;20524;-67
2022/05/13 12:54:54;;;;;;;6.38;3.63;;;;;;;;;;5017975;28;20530;-67
2022/05/13 12:57:26;;;;;;;7.35;3.80;;;;;;;;;;5018571;28;20512;-70
2022/05/13 13:00:06;;;;;;;7.10;4.00;;;;;;;;;;5026034;28;20107;-67
2022/05/13 13:02:35;;;;;;;7.97;3.80;;;;;;;;;;5023938;28;20378;-67
2022/05/13 13:05:06;;;;;;;6.82;3.55;;;;;;;;;;5020249;28;20493;-68
2022/05/13 13:07:38;;;;;;;7.32;3.22;;;;;;;;;;5021150;28;20046;-68
2022/05/13 13:10:10;;;;;;;6.38;3.33;;;;;;;;;;5020388;28;20121;-67
2022/05/13 13:12:41;;;;;;;5.72;3.70;;;;;;;;;;5024297;28;20049;-68
2022/05/13 13:15:33;;;;;;;5.40;3.72;;;;;;;;;;5023034;28;20100;-67
2022/05/13 13:18:06;;;;;;;5.95;3.25;;;;;;;;;;5025180;28;20396;-66
2022/05/13 13:20:45;;;;;;;6.85;3.95;;;;;;;;;;5025943;28;20045;-67
2022/05/13 13:23:16;;;;;;;7.10;3.55;;;;;;;;;;5020552;28;20054;-67
2022/05/13 13:25:45;;;;;;;7.53;3.95;;;;;;;;;;5024353;28;20070;-66
2022/05/13 13:28:21;;;;;;;6.60;3.50;;;;;;;;;;5023522;28;20603;-67
2022/05/13 13:30:53;;;;;;;5.32;3.20;;;;;;;;;;5019983;28;20046;-67
2022/05/13 13:33:22;;;;;;;6.15;3.85;;;;;;;;;;5031873;28;20060;-66
2022/05/13 13:35:51;;;;;;;5.35;3.28;;;;;;;;;;5035007;28;20049;-67
2022/05/13 13:38:19;;;;;;;6.05;3.30;;;;;;;;;;5028662;28;20088;-67
2022/05/13 13:40:50;;;;;;;6.13;3.03;;;;;;;;;;5022768;28;20064;-67
2022/05/13 13:43:22;;;;;;;7.55;3.38;;;;;;;;;;5021844;28;20049;-67
2022/05/13 13:45:53;;;;;;;4.40;2.95;;;;;;;;;;5026222;28;20481;-67
2022/05/13 13:48:27;;;;;;;5.05;3.40;;;;;;;;;;5029925;28;20045;-67
2022/05/13 13:50:56;;;;;;;5.57;3.38;;;;;;;;;;5027548;28;20053;-67
2022/05/13 13:53:29;;;;;;;4.20;2.83;;;;;;;;;;5025230;28;20046;-67
2022/05/13 13:56:00;;;;;;;4.43;2.78;;;;;;;;;;5025422;28;20125;-67
2022/05/13 13:58:36;;;;;;;6.00;3.17;;;;;;;;;;5025359;28;20096;-69
2022/05/13 14:01:09;;;;;;;5.68;2.83;;;;;;;;;;5029572;28;20068;-67
2022/05/13 14:03:37;;;;;;;4.85;2.95;;;;;;;;;;5033126;28;20084;-69
2022/05/13 14:06:12;;;;;;;7.18;3.33;;;;;;;;;;5026865;28;20163;-67
2022/05/13 14:08:42;;;;;;;5.78;2.97;;;;;;;;;;5019283;28;20057;-68
2022/05/13 14:11:13;;;;;;;5.93;2.80;;;;;;;;;;5017148;28;20136;-66
2022/05/13 14:14:03;;;;;;;5.95;2.90;;;;;;;;;;5022422;28;20052;-67
2022/05/13 14:16:32;;;;;;;5.97;2.85;;;;;;;;;;5021614;28;20569;-68
2022/05/13 14:19:09;;;;;;;5.40;3.08;;;;;;;;;;5020862;28;20045;-66
2022/05/13 14:21:42;;;;;;;3.42;2.80;;;;;;;;;;5030893;28;20104;-66
2022/05/13 14:24:11;;;;;;;6.10;2.80;;;;;;;;;;5028788;28;20099;-66
2022/05/13 14:26:49;;;;;;;5.28;2.83;;;;;;;;;;5029656;28;20056;-66
2022/05/13 14:29:18;;;;;;;6.53;3.10;;;;;;;;;;5029087;28;20493;-66
2022/05/13 14:31:47;;;;;;;5.93;3.42;;;;;;;;;;5020814;28;20128;-66
2022/05/13 14:34:16;;;;;;;4.78;2.92;;;;;;;;;;5020700;28;20100;-66
2022/05/13 14:36:46;;;;;;;4.93;3.15;;;;;;;;;;5031436;28;20049;-65
2022/05/13 14:42:02;;;;;;;4.68;2.78;;;;;;;;;;5030184;28;20084;-68
2022/05/13 14:44:38;;;;;;;5.18;2.50;;;;;;;;;;5027836;28;20042;-66
2022/05/13 14:47:08;;;;;;;5.97;2.67;;;;;;;;;;5022693;28;20126;-65
2022/05/13 14:49:38;;;;;;;4.85;2.90;;;;;;;;;;5019569;28;20590;-66
2022/05/13 14:52:07;;;;;;;5.10;2.70;;;;;;;;;;5022644;28;20045;-68
2022/05/13 14:54:40;;;;;;;5.68;2.45;;;;;;;;;;5026721;28;20498;-66
2022/05/13 14:57:09;;;;;;;4.65;2.78;;;;;;;;;;5025049;28;20056;-65
2022/05/13 14:59:53;;;;;;;7.68;2.97;;;;;;;;;;5028060;28;20084;-68
2022/05/13 15:02:28;;;;;;;3.63;2.40;;;;;;;;;;5028973;28;20075;-65
2022/05/13 15:05:05;;;;;;;6.43;2.88;;;;;;;;;;5028809;28;20064;-66
2022/05/13 15:07:38;;;;;;;6.28;2.80;;;;;;;;;;5024328;28;20057;-70
2022/05/13 15:10:08;;;;;;;2.45;2.17;;;;;;;;;;5023186;28;20053;-66
2022/05/13 15:12:38;;;;;;;4.38;2.28;;;;;;;;;;5008075;28;20050;-65
2022/05/13 15:15:09;;;;;;;5.35;2.28;;;;;;;;;;5002731;28;20086;-65
2022/05/13 15:17:41;;;;;;;4.70;2.78;;;;;;;;;;5020602;28;20416;-66
2022/05/13 15:20:10;;;;;;;4.43;2.67;;;;;;;;;;5029208;28;20045;-65
2022/05/13 15:22:39;;;;;;;4.90;2.88;;;;;;;;;;5024123;28;20057;-66
2022/05/13 15:25:08;;;;;;;7.28;2.75;;;;;;;;;;5024708;28;20049;-66
2022/05/13 15:27:38;;;;;;;8.43;2.67;;;;;;;;;;5016806;28;20045;-64
2022/05/13 15:30:09;;;;;;;5.40;2.65;;;;;;;;;;5018896;28;20049;-65
2022/05/13 15:32:38;;;;;;;5.07;2.83;;;;;;;;;;5024407;28;20068;-65